sensor_id;sensor_type;location;lat;lon;timestamp;temperature;humidity
55777;DHT22;54079;44.540;18.784;2023-05-24T00:02:24;16.40;95.10
55777;DHT22;54079;44.540;18.784;2023-05-24T00:04:52;16.40;94.90
55777;DHT22;54079;44.540;18.784;2023-05-24T00:07:18;16.40;95.50
55777;DHT22;54079;44.540;18.784;2023-05-24T00:09:44;16.30;96.10
55777;DHT22;54079;44.540;18.784;2023-05-24T00:12:10;16.10;96.60
55777;DHT22;54079;44.540;18.784;2023-05-24T00:14:36;16.10;97.50
55777;DHT22;54079;44.540;18.784;2023-05-24T00:17:02;16.00;96.80
55777;DHT22;54079;44.540;18.784;2023-05-24T00:19:28;16.10;97.10
55777;DHT22;54079;44.540;18.784;2023-05-24T00:21:54;16.10;97.10
55777;DHT22;54079;44.540;18.784;2023-05-24T00:24:20;15.90;97.20
55777;DHT22;54079;44.540;18.784;2023-05-24T00:26:46;16.10;96.60
55777;DHT22;54079;44.540;18.784;2023-05-24T00:29:13;16.30;97.30
55777;DHT22;54079;44.540;18.784;2023-05-24T00:31:39;16.20;96.60
55777;DHT22;54079;44.540;18.784;2023-05-24T00:34:05;16.10;96.00
55777;DHT22;54079;44.540;18.784;2023-05-24T00:36:32;16.00;96.30
55777;DHT22;54079;44.540;18.784;2023-05-24T00:38:58;16.10;96.30
55777;DHT22;54079;44.540;18.784;2023-05-24T00:41:24;16.10;97.30
55777;DHT22;54079;44.540;18.784;2023-05-24T00:43:50;16.00;97.60
55777;DHT22;54079;44.540;18.784;2023-05-24T00:46:24;15.90;98.00
55777;DHT22;54079;44.540;18.784;2023-05-24T00:48:51;15.80;98.30
55777;DHT22;54079;44.540;18.784;2023-05-24T00:51:18;15.70;98.60
55777;DHT22;54079;44.540;18.784;2023-05-24T00:53:45;15.80;98.70
55777;DHT22;54079;44.540;18.784;2023-05-24T00:56:16;15.70;99.00
55777;DHT22;54079;44.540;18.784;2023-05-24T00:58:42;15.50;99.90
55777;DHT22;54079;44.540;18.784;2023-05-24T01:01:09;15.40;99.90
55777;DHT22;54079;44.540;18.784;2023-05-24T01:03:35;15.60;99.90
55777;DHT22;54079;44.540;18.784;2023-05-24T01:06:03;15.60;99.90
55777;DHT22;54079;44.540;18.784;2023-05-24T01:09:18;15.60;99.90
55777;DHT22;54079;44.540;18.784;2023-05-24T01:16:29;15.70;99.90
55777;DHT22;54079;44.540;18.784;2023-05-24T01:19:01;15.70;99.90
55777;DHT22;54079;44.540;18.784;2023-05-24T01:27:13;15.40;99.90
55777;DHT22;54079;44.540;18.784;2023-05-24T01:29:39;15.40;99.90
55777;DHT22;54079;44.540;18.784;2023-05-24T01:32:06;15.40;99.90
55777;DHT22;54079;44.540;18.784;2023-05-24T01:34:32;15.50;99.90
55777;DHT22;54079;44.540;18.784;2023-05-24T01:36:58;15.40;99.90
55777;DHT22;54079;44.540;18.784;2023-05-24T01:39:26;15.20;99.90
55777;DHT22;54079;44.540;18.784;2023-05-24T01:42:32;15.20;99.90
55777;DHT22;54079;44.540;18.784;2023-05-24T01:50:10;15.30;99.90
55777;DHT22;54079;44.540;18.784;2023-05-24T01:52:42;15.20;99.90
55777;DHT22;54079;44.540;18.784;2023-05-24T01:55:10;15.20;99.90
55777;DHT22;54079;44.540;18.784;2023-05-24T01:57:38;15.10;99.90
55777;DHT22;54079;44.540;18.784;2023-05-24T02:00:07;15.20;99.90
55777;DHT22;54079;44.540;18.784;2023-05-24T02:02:34;15.20;99.90
55777;DHT22;54079;44.540;18.784;2023-05-24T02:05:00;15.30;99.90
55777;DHT22;54079;44.540;18.784;2023-05-24T02:07:26;15.30;99.90
55777;DHT22;54079;44.540;18.784;2023-05-24T02:09:52;15.20;99.90
55777;DHT22;54079;44.540;18.784;2023-05-24T02:12:18;15.00;99.90
55777;DHT22;54079;44.540;18.784;2023-05-24T02:14:44;14.60;99.90
55777;DHT22;54079;44.540;18.784;2023-05-24T02:17:10;14.50;99.90
55777;DHT22;54079;44.540;18.784;2023-05-24T02:19:36;14.80;99.90
55777;DHT22;54079;44.540;18.784;2023-05-24T02:22:02;14.90;99.90
55777;DHT22;54079;44.540;18.784;2023-05-24T02:24:28;14.90;99.90
55777;DHT22;54079;44.540;18.784;2023-05-24T02:26:54;14.90;99.90
55777;DHT22;54079;44.540;18.784;2023-05-24T02:29:21;15.00;99.90
55777;DHT22;54079;44.540;18.784;2023-05-24T02:31:47;14.70;99.90
55777;DHT22;54079;44.540;18.784;2023-05-24T02:34:19;14.80;99.90
55777;DHT22;54079;44.540;18.784;2023-05-24T02:36:45;14.80;99.90
55777;DHT22;54079;44.540;18.784;2023-05-24T02:39:11;14.80;99.90
55777;DHT22;54079;44.540;18.784;2023-05-24T02:41:37;14.70;99.90
55777;DHT22;54079;44.540;18.784;2023-05-24T02:44:03;14.40;99.90
55777;DHT22;54079;44.540;18.784;2023-05-24T02:46:29;14.40;99.90
55777;DHT22;54079;44.540;18.784;2023-05-24T02:48:55;14.60;99.90
55777;DHT22;54079;44.540;18.784;2023-05-24T02:51:21;14.50;99.90
55777;DHT22;54079;44.540;18.784;2023-05-24T02:53:47;14.50;99.90
55777;DHT22;54079;44.540;18.784;2023-05-24T02:56:12;14.50;99.90
55777;DHT22;54079;44.540;18.784;2023-05-24T02:58:42;14.50;99.90
55777;DHT22;54079;44.540;18.784;2023-05-24T03:01:12;14.30;99.90
55777;DHT22;54079;44.540;18.784;2023-05-24T03:03:38;14.20;99.90
55777;DHT22;54079;44.540;18.784;2023-05-24T03:06:05;14.20;99.90
55777;DHT22;54079;44.540;18.784;2023-05-24T03:08:33;14.30;99.90
55777;DHT22;54079;44.540;18.784;2023-05-24T03:10:58;14.30;99.90
55777;DHT22;54079;44.540;18.784;2023-05-24T03:13:24;14.40;99.90
55777;DHT22;54079;44.540;18.784;2023-05-24T03:15:50;14.50;99.90
55777;DHT22;54079;44.540;18.784;2023-05-24T03:18:16;14.50;99.90
55777;DHT22;54079;44.540;18.784;2023-05-24T03:20:42;14.60;99.90
55777;DHT22;54079;44.540;18.784;2023-05-24T03:23:08;14.60;99.90
55777;DHT22;54079;44.540;18.784;2023-05-24T03:25:34;14.40;99.90
55777;DHT22;54079;44.540;18.784;2023-05-24T03:28:00;14.30;99.90
55777;DHT22;54079;44.540;18.784;2023-05-24T03:30:27;14.20;99.90
55777;DHT22;54079;44.540;18.784;2023-05-24T03:32:53;14.20;99.90
55777;DHT22;54079;44.540;18.784;2023-05-24T03:35:20;14.50;99.90
55777;DHT22;54079;44.540;18.784;2023-05-24T03:37:46;14.60;99.90
55777;DHT22;54079;44.540;18.784;2023-05-24T03:40:12;14.70;99.90
55777;DHT22;54079;44.540;18.784;2023-05-24T03:42:38;14.70;99.90
55777;DHT22;54079;44.540;18.784;2023-05-24T03:45:04;14.40;99.90
55777;DHT22;54079;44.540;18.784;2023-05-24T03:47:30;14.80;99.90
55777;DHT22;54079;44.540;18.784;2023-05-24T03:49:56;15.00;99.90
55777;DHT22;54079;44.540;18.784;2023-05-24T03:52:22;15.20;99.90
55777;DHT22;54079;44.540;18.784;2023-05-24T03:54:48;15.20;99.90
55777;DHT22;54079;44.540;18.784;2023-05-24T03:57:15;15.40;99.90
55777;DHT22;54079;44.540;18.784;2023-05-24T03:59:42;15.40;99.90
55777;DHT22;54079;44.540;18.784;2023-05-24T04:02:08;15.40;99.90
55777;DHT22;54079;44.540;18.784;2023-05-24T04:04:33;15.60;99.90
55777;DHT22;54079;44.540;18.784;2023-05-24T04:07:01;15.60;99.90
55777;DHT22;54079;44.540;18.784;2023-05-24T04:09:27;15.70;99.90
55777;DHT22;54079;44.540;18.784;2023-05-24T04:11:53;16.00;99.90
55777;DHT22;54079;44.540;18.784;2023-05-24T04:14:19;16.20;99.90
55777;DHT22;54079;44.540;18.784;2023-05-24T04:16:46;16.30;99.90
55777;DHT22;54079;44.540;18.784;2023-05-24T04:19:12;16.50;99.90
55777;DHT22;54079;44.540;18.784;2023-05-24T04:21:38;16.70;99.90
55777;DHT22;54079;44.540;18.784;2023-05-24T04:24:05;17.90;99.20
55777;DHT22;54079;44.540;18.784;2023-05-24T04:26:33;18.20;96.50
55777;DHT22;54079;44.540;18.784;2023-05-24T04:28:59;18.20;95.40
55777;DHT22;54079;44.540;18.784;2023-05-24T04:31:26;18.60;95.30
55777;DHT22;54079;44.540;18.784;2023-05-24T04:33:55;19.70;93.40
55777;DHT22;54079;44.540;18.784;2023-05-24T04:36:23;20.80;90.60
55777;DHT22;54079;44.540;18.784;2023-05-24T04:38:49;21.70;86.70
55777;DHT22;54079;44.540;18.784;2023-05-24T04:41:18;22.40;83.30
55777;DHT22;54079;44.540;18.784;2023-05-24T04:43:44;23.50;79.30
55777;DHT22;54079;44.540;18.784;2023-05-24T04:46:11;24.70;76.60
55777;DHT22;54079;44.540;18.784;2023-05-24T04:48:37;25.60;72.90
55777;DHT22;54079;44.540;18.784;2023-05-24T04:51:03;24.90;73.50
55777;DHT22;54079;44.540;18.784;2023-05-24T04:53:29;25.70;70.80
55777;DHT22;54079;44.540;18.784;2023-05-24T04:55:55;26.80;69.70
55777;DHT22;54079;44.540;18.784;2023-05-24T04:58:21;27.70;68.50
55777;DHT22;54079;44.540;18.784;2023-05-24T05:00:47;28.40;67.30
55777;DHT22;54079;44.540;18.784;2023-05-24T05:03:13;28.90;66.20
55777;DHT22;54079;44.540;18.784;2023-05-24T05:05:39;28.70;65.30
55777;DHT22;54079;44.540;18.784;2023-05-24T05:08:05;29.30;65.10
55777;DHT22;54079;44.540;18.784;2023-05-24T05:10:31;29.60;64.00
55777;DHT22;54079;44.540;18.784;2023-05-24T05:12:57;30.00;63.60
55777;DHT22;54079;44.540;18.784;2023-05-24T05:15:23;30.90;62.00
55777;DHT22;54079;44.540;18.784;2023-05-24T05:17:49;31.90;61.30
55777;DHT22;54079;44.540;18.784;2023-05-24T05:20:15;31.70;59.90
55777;DHT22;54079;44.540;18.784;2023-05-24T05:22:47;32.10;60.40
55777;DHT22;54079;44.540;18.784;2023-05-24T05:25:14;32.90;59.30
55777;DHT22;54079;44.540;18.784;2023-05-24T05:27:40;33.10;58.60
55777;DHT22;54079;44.540;18.784;2023-05-24T05:30:08;32.80;58.50
55777;DHT22;54079;44.540;18.784;2023-05-24T05:32:35;32.70;58.60
55777;DHT22;54079;44.540;18.784;2023-05-24T05:35:02;33.30;57.80
55777;DHT22;54079;44.540;18.784;2023-05-24T05:37:28;33.50;58.00
55777;DHT22;54079;44.540;18.784;2023-05-24T05:39:54;34.30;57.30
55777;DHT22;54079;44.540;18.784;2023-05-24T05:42:20;34.70;56.60
55777;DHT22;54079;44.540;18.784;2023-05-24T05:44:46;34.80;56.30
55777;DHT22;54079;44.540;18.784;2023-05-24T05:47:12;35.00;56.10
55777;DHT22;54079;44.540;18.784;2023-05-24T05:49:38;34.60;56.00
55777;DHT22;54079;44.540;18.784;2023-05-24T05:52:04;35.10;55.70
55777;DHT22;54079;44.540;18.784;2023-05-24T05:54:31;35.20;55.40
55777;DHT22;54079;44.540;18.784;2023-05-24T05:56:57;35.40;54.70
55777;DHT22;54079;44.540;18.784;2023-05-24T05:59:23;36.00;53.60
55777;DHT22;54079;44.540;18.784;2023-05-24T06:01:49;36.90;52.70
55777;DHT22;54079;44.540;18.784;2023-05-24T06:04:15;37.10;52.50
55777;DHT22;54079;44.540;18.784;2023-05-24T06:06:41;38.20;51.50
55777;DHT22;54079;44.540;18.784;2023-05-24T06:09:09;38.30;51.70
55777;DHT22;54079;44.540;18.784;2023-05-24T06:11:36;39.10;50.80
55777;DHT22;54079;44.540;18.784;2023-05-24T06:14:02;40.20;51.30
55777;DHT22;54079;44.540;18.784;2023-05-24T06:16:28;40.80;49.50
55777;DHT22;54079;44.540;18.784;2023-05-24T06:18:54;41.20;49.70
55777;DHT22;54079;44.540;18.784;2023-05-24T06:21:20;42.20;48.60
55777;DHT22;54079;44.540;18.784;2023-05-24T06:23:46;43.10;47.50
55777;DHT22;54079;44.540;18.784;2023-05-24T06:26:12;43.30;47.50
55777;DHT22;54079;44.540;18.784;2023-05-24T06:28:38;43.80;47.00
55777;DHT22;54079;44.540;18.784;2023-05-24T06:31:04;43.60;46.70
55777;DHT22;54079;44.540;18.784;2023-05-24T06:33:32;43.50;46.80
55777;DHT22;54079;44.540;18.784;2023-05-24T06:35:58;44.00;46.60
55777;DHT22;54079;44.540;18.784;2023-05-24T06:38:24;44.70;45.80
55777;DHT22;54079;44.540;18.784;2023-05-24T06:40:50;44.80;45.00
55777;DHT22;54079;44.540;18.784;2023-05-24T06:43:16;45.10;44.00
55777;DHT22;54079;44.540;18.784;2023-05-24T06:45:42;44.00;45.40
55777;DHT22;54079;44.540;18.784;2023-05-24T06:48:08;44.40;45.40
55777;DHT22;54079;44.540;18.784;2023-05-24T06:50:34;44.90;45.00
55777;DHT22;54079;44.540;18.784;2023-05-24T06:53:01;45.50;44.90
55777;DHT22;54079;44.540;18.784;2023-05-24T06:55:28;45.80;44.50
55777;DHT22;54079;44.540;18.784;2023-05-24T06:57:54;46.50;44.60
55777;DHT22;54079;44.540;18.784;2023-05-24T07:00:20;46.20;44.10
55777;DHT22;54079;44.540;18.784;2023-05-24T07:02:46;46.10;44.40
55777;DHT22;54079;44.540;18.784;2023-05-24T07:05:12;46.30;44.30
55777;DHT22;54079;44.540;18.784;2023-05-24T07:07:42;46.70;44.10
55777;DHT22;54079;44.540;18.784;2023-05-24T07:10:09;46.70;43.90
55777;DHT22;54079;44.540;18.784;2023-05-24T07:12:37;46.80;43.90
55777;DHT22;54079;44.540;18.784;2023-05-24T07:15:06;46.90;43.50
55777;DHT22;54079;44.540;18.784;2023-05-24T07:17:33;46.60;44.20
55777;DHT22;54079;44.540;18.784;2023-05-24T07:20:00;47.60;43.30
55777;DHT22;54079;44.540;18.784;2023-05-24T07:22:26;47.90;43.30
55777;DHT22;54079;44.540;18.784;2023-05-24T07:24:53;47.70;43.40
55777;DHT22;54079;44.540;18.784;2023-05-24T07:27:19;48.20;43.00
55777;DHT22;54079;44.540;18.784;2023-05-24T07:29:47;49.00;42.80
55777;DHT22;54079;44.540;18.784;2023-05-24T07:32:14;49.50;42.10
55777;DHT22;54079;44.540;18.784;2023-05-24T07:34:41;49.00;42.30
55777;DHT22;54079;44.540;18.784;2023-05-24T07:37:08;48.80;42.20
55777;DHT22;54079;44.540;18.784;2023-05-24T07:39:33;48.00;42.40
55777;DHT22;54079;44.540;18.784;2023-05-24T07:41:59;48.60;42.40
55777;DHT22;54079;44.540;18.784;2023-05-24T07:44:26;48.40;41.70
55777;DHT22;54079;44.540;18.784;2023-05-24T07:46:52;49.30;41.90
55777;DHT22;54079;44.540;18.784;2023-05-24T07:49:19;49.70;41.50
55777;DHT22;54079;44.540;18.784;2023-05-24T07:51:45;48.60;41.30
55777;DHT22;54079;44.540;18.784;2023-05-24T07:54:10;49.00;42.30
55777;DHT22;54079;44.540;18.784;2023-05-24T07:56:36;50.10;41.90
55777;DHT22;54079;44.540;18.784;2023-05-24T07:59:02;49.00;41.70
55777;DHT22;54079;44.540;18.784;2023-05-24T08:01:35;50.10;41.40
55777;DHT22;54079;44.540;18.784;2023-05-24T08:04:01;50.30;41.40
55777;DHT22;54079;44.540;18.784;2023-05-24T08:06:33;48.70;41.40
55777;DHT22;54079;44.540;18.784;2023-05-24T08:09:01;47.90;42.20
55777;DHT22;54079;44.540;18.784;2023-05-24T08:11:30;47.40;42.00
55777;DHT22;54079;44.540;18.784;2023-05-24T08:13:56;47.80;42.40
55777;DHT22;54079;44.540;18.784;2023-05-24T08:16:23;48.20;41.60
55777;DHT22;54079;44.540;18.784;2023-05-24T08:18:48;47.70;42.40
55777;DHT22;54079;44.540;18.784;2023-05-24T08:21:14;49.10;42.40
55777;DHT22;54079;44.540;18.784;2023-05-24T08:23:41;51.00;41.30
55777;DHT22;54079;44.540;18.784;2023-05-24T08:26:06;50.60;39.90
55777;DHT22;54079;44.540;18.784;2023-05-24T08:28:33;49.90;40.30
55777;DHT22;54079;44.540;18.784;2023-05-24T08:31:00;47.70;41.20
55777;DHT22;54079;44.540;18.784;2023-05-24T08:33:26;44.90;42.90
55777;DHT22;54079;44.540;18.784;2023-05-24T08:35:51;43.70;43.80
55777;DHT22;54079;44.540;18.784;2023-05-24T08:38:18;45.50;43.00
55777;DHT22;54079;44.540;18.784;2023-05-24T08:40:44;43.60;43.50
55777;DHT22;54079;44.540;18.784;2023-05-24T08:43:10;40.40;45.60
55777;DHT22;54079;44.540;18.784;2023-05-24T08:45:38;37.10;47.90
55777;DHT22;54079;44.540;18.784;2023-05-24T08:48:07;38.50;47.50
55777;DHT22;54079;44.540;18.784;2023-05-24T08:50:34;36.70;48.30
55777;DHT22;54079;44.540;18.784;2023-05-24T08:53:00;34.60;50.70
55777;DHT22;54079;44.540;18.784;2023-05-24T08:55:29;33.80;53.00
55777;DHT22;54079;44.540;18.784;2023-05-24T08:57:56;35.10;51.60
55777;DHT22;54079;44.540;18.784;2023-05-24T09:00:22;34.50;51.70
55777;DHT22;54079;44.540;18.784;2023-05-24T09:02:48;34.70;52.30
55777;DHT22;54079;44.540;18.784;2023-05-24T09:05:15;34.40;53.60
55777;DHT22;54079;44.540;18.784;2023-05-24T09:07:43;33.70;52.60
55777;DHT22;54079;44.540;18.784;2023-05-24T09:10:10;32.50;55.60
55777;DHT22;54079;44.540;18.784;2023-05-24T09:12:37;31.30;55.70
55777;DHT22;54079;44.540;18.784;2023-05-24T09:15:05;30.90;57.60
55777;DHT22;54079;44.540;18.784;2023-05-24T09:17:31;30.00;58.60
55777;DHT22;54079;44.540;18.784;2023-05-24T09:19:58;30.10;58.20
55777;DHT22;54079;44.540;18.784;2023-05-24T09:22:26;30.20;58.20
55777;DHT22;54079;44.540;18.784;2023-05-24T09:24:56;29.80;60.60
55777;DHT22;54079;44.540;18.784;2023-05-24T09:27:22;29.90;59.40
55777;DHT22;54079;44.540;18.784;2023-05-24T09:29:49;29.60;59.60
55777;DHT22;54079;44.540;18.784;2023-05-24T09:32:17;29.90;61.00
55777;DHT22;54079;44.540;18.784;2023-05-24T09:34:44;29.80;60.00
55777;DHT22;54079;44.540;18.784;2023-05-24T09:37:21;29.70;59.40
55777;DHT22;54079;44.540;18.784;2023-05-24T09:39:49;29.40;59.80
55777;DHT22;54079;44.540;18.784;2023-05-24T09:42:23;29.20;59.80
55777;DHT22;54079;44.540;18.784;2023-05-24T09:45:05;28.70;61.70
55777;DHT22;54079;44.540;18.784;2023-05-24T09:47:37;27.50;63.20
55777;DHT22;54079;44.540;18.784;2023-05-24T09:50:04;27.60;64.50
55777;DHT22;54079;44.540;18.784;2023-05-24T09:52:35;27.80;64.30
55777;DHT22;54079;44.540;18.784;2023-05-24T09:55:17;27.80;63.50
55777;DHT22;54079;44.540;18.784;2023-05-24T09:58:02;27.40;63.50
55777;DHT22;54079;44.540;18.784;2023-05-24T10:00:28;27.30;64.70
55777;DHT22;54079;44.540;18.784;2023-05-24T10:03:09;27.30;62.90
55777;DHT22;54079;44.540;18.784;2023-05-24T10:05:43;27.30;65.10
55777;DHT22;54079;44.540;18.784;2023-05-24T10:08:09;27.30;62.70
55777;DHT22;54079;44.540;18.784;2023-05-24T10:10:36;27.40;63.80
55777;DHT22;54079;44.540;18.784;2023-05-24T10:13:02;27.60;64.30
55777;DHT22;54079;44.540;18.784;2023-05-24T10:15:29;27.50;65.10
55777;DHT22;54079;44.540;18.784;2023-05-24T10:17:56;27.60;65.50
55777;DHT22;54079;44.540;18.784;2023-05-24T10:20:23;26.60;66.90
55777;DHT22;54079;44.540;18.784;2023-05-24T10:22:58;26.70;66.60
55777;DHT22;54079;44.540;18.784;2023-05-24T10:25:27;26.90;66.40
55777;DHT22;54079;44.540;18.784;2023-05-24T10:27:59;27.00;66.60
55777;DHT22;54079;44.540;18.784;2023-05-24T10:32:55;27.30;64.40
55777;DHT22;54079;44.540;18.784;2023-05-24T10:35:22;26.90;64.40
55777;DHT22;54079;44.540;18.784;2023-05-24T10:37:49;27.00;65.90
55777;DHT22;54079;44.540;18.784;2023-05-24T10:40:19;26.90;66.00
55777;DHT22;54079;44.540;18.784;2023-05-24T10:42:46;27.00;65.70
55777;DHT22;54079;44.540;18.784;2023-05-24T10:45:38;27.00;65.50
55777;DHT22;54079;44.540;18.784;2023-05-24T10:50:54;26.90;65.50
55777;DHT22;54079;44.540;18.784;2023-05-24T10:53:25;26.70;66.40
55777;DHT22;54079;44.540;18.784;2023-05-24T10:55:56;26.50;66.10
55777;DHT22;54079;44.540;18.784;2023-05-24T11:00:58;26.50;66.00
55777;DHT22;54079;44.540;18.784;2023-05-24T11:03:24;26.00;66.40
55777;DHT22;54079;44.540;18.784;2023-05-24T11:05:57;25.70;67.00
55777;DHT22;54079;44.540;18.784;2023-05-24T11:08:34;25.90;66.50
55777;DHT22;54079;44.540;18.784;2023-05-24T11:13:29;26.20;66.50
55777;DHT22;54079;44.540;18.784;2023-05-24T11:15:56;26.00;67.20
55777;DHT22;54079;44.540;18.784;2023-05-24T11:18:22;25.80;66.80
55777;DHT22;54079;44.540;18.784;2023-05-24T11:20:49;25.80;67.40
55777;DHT22;54079;44.540;18.784;2023-05-24T11:23:16;26.30;67.30
55777;DHT22;54079;44.540;18.784;2023-05-24T11:25:45;26.60;68.60
55777;DHT22;54079;44.540;18.784;2023-05-24T11:28:12;26.70;66.20
55777;DHT22;54079;44.540;18.784;2023-05-24T11:30:46;26.70;66.10
55777;DHT22;54079;44.540;18.784;2023-05-24T11:33:16;26.50;66.50
55777;DHT22;54079;44.540;18.784;2023-05-24T11:35:43;26.20;66.90
55777;DHT22;54079;44.540;18.784;2023-05-24T11:38:14;26.50;66.80
55777;DHT22;54079;44.540;18.784;2023-05-24T11:40:45;26.40;67.10
55777;DHT22;54079;44.540;18.784;2023-05-24T11:43:18;26.50;67.80
55777;DHT22;54079;44.540;18.784;2023-05-24T11:45:47;26.60;68.20
55777;DHT22;54079;44.540;18.784;2023-05-24T11:48:14;26.70;68.80
55777;DHT22;54079;44.540;18.784;2023-05-24T11:50:42;26.50;66.20
55777;DHT22;54079;44.540;18.784;2023-05-24T11:53:16;26.70;67.40
55777;DHT22;54079;44.540;18.784;2023-05-24T11:55:43;26.50;67.60
55777;DHT22;54079;44.540;18.784;2023-05-24T11:58:21;26.50;68.40
55777;DHT22;54079;44.540;18.784;2023-05-24T12:00:51;26.30;68.10
55777;DHT22;54079;44.540;18.784;2023-05-24T12:03:17;26.30;67.90
55777;DHT22;54079;44.540;18.784;2023-05-24T12:05:43;26.00;67.20
55777;DHT22;54079;44.540;18.784;2023-05-24T12:08:10;26.00;66.60
55777;DHT22;54079;44.540;18.784;2023-05-24T12:10:38;25.70;67.90
55777;DHT22;54079;44.540;18.784;2023-05-24T12:13:05;25.70;67.00
55777;DHT22;54079;44.540;18.784;2023-05-24T12:15:35;25.60;67.50
55777;DHT22;54079;44.540;18.784;2023-05-24T12:18:01;25.50;67.50
55777;DHT22;54079;44.540;18.784;2023-05-24T12:20:27;25.50;67.10
55777;DHT22;54079;44.540;18.784;2023-05-24T12:22:54;25.50;65.10
55777;DHT22;54079;44.540;18.784;2023-05-24T12:25:21;25.60;65.40
55777;DHT22;54079;44.540;18.784;2023-05-24T12:27:54;25.70;66.50
55777;DHT22;54079;44.540;18.784;2023-05-24T12:30:26;25.50;66.10
55777;DHT22;54079;44.540;18.784;2023-05-24T12:32:53;25.60;66.60
55777;DHT22;54079;44.540;18.784;2023-05-24T12:35:20;25.50;66.70
55777;DHT22;54079;44.540;18.784;2023-05-24T12:37:46;25.40;68.10
55777;DHT22;54079;44.540;18.784;2023-05-24T12:40:19;25.10;67.80
55777;DHT22;54079;44.540;18.784;2023-05-24T12:42:56;25.00;67.70
55777;DHT22;54079;44.540;18.784;2023-05-24T12:45:23;25.10;69.90
55777;DHT22;54079;44.540;18.784;2023-05-24T12:47:54;25.10;69.00
55777;DHT22;54079;44.540;18.784;2023-05-24T12:50:22;25.10;68.40
55777;DHT22;54079;44.540;18.784;2023-05-24T12:52:48;25.30;66.90
55777;DHT22;54079;44.540;18.784;2023-05-24T12:55:22;25.10;66.10
55777;DHT22;54079;44.540;18.784;2023-05-24T12:57:48;25.40;65.70
55777;DHT22;54079;44.540;18.784;2023-05-24T13:00:25;25.30;64.90
55777;DHT22;54079;44.540;18.784;2023-05-24T13:02:55;25.60;66.50
55777;DHT22;54079;44.540;18.784;2023-05-24T13:05:24;25.80;66.90
55777;DHT22;54079;44.540;18.784;2023-05-24T13:07:51;25.50;65.10
55777;DHT22;54079;44.540;18.784;2023-05-24T13:10:18;25.40;66.30
55777;DHT22;54079;44.540;18.784;2023-05-24T13:12:44;25.60;65.70
55777;DHT22;54079;44.540;18.784;2023-05-24T13:15:11;25.30;64.60
55777;DHT22;54079;44.540;18.784;2023-05-24T13:17:39;25.50;64.80
55777;DHT22;54079;44.540;18.784;2023-05-24T13:20:05;25.50;66.90
55777;DHT22;54079;44.540;18.784;2023-05-24T13:22:36;25.60;65.70
55777;DHT22;54079;44.540;18.784;2023-05-24T13:25:07;25.60;65.80
55777;DHT22;54079;44.540;18.784;2023-05-24T13:27:34;25.60;65.80
55777;DHT22;54079;44.540;18.784;2023-05-24T13:30:00;25.50;67.30
55777;DHT22;54079;44.540;18.784;2023-05-24T13:32:26;25.60;65.80
55777;DHT22;54079;44.540;18.784;2023-05-24T13:34:52;25.70;67.00
55777;DHT22;54079;44.540;18.784;2023-05-24T13:37:18;25.80;67.30
55777;DHT22;54079;44.540;18.784;2023-05-24T13:39:44;25.90;66.50
55777;DHT22;54079;44.540;18.784;2023-05-24T13:42:10;25.90;67.10
55777;DHT22;54079;44.540;18.784;2023-05-24T13:44:36;26.00;66.20
55777;DHT22;54079;44.540;18.784;2023-05-24T13:47:03;25.80;66.50
55777;DHT22;54079;44.540;18.784;2023-05-24T13:49:29;25.90;67.00
55777;DHT22;54079;44.540;18.784;2023-05-24T13:51:55;25.80;67.30
55777;DHT22;54079;44.540;18.784;2023-05-24T13:54:21;25.90;66.60
55777;DHT22;54079;44.540;18.784;2023-05-24T13:56:47;25.90;66.30
55777;DHT22;54079;44.540;18.784;2023-05-24T13:59:14;25.80;67.30
55777;DHT22;54079;44.540;18.784;2023-05-24T14:01:41;25.80;68.10
55777;DHT22;54079;44.540;18.784;2023-05-24T14:04:07;25.70;67.40
55777;DHT22;54079;44.540;18.784;2023-05-24T14:06:33;25.40;66.20
55777;DHT22;54079;44.540;18.784;2023-05-24T14:09:02;25.60;66.70
55777;DHT22;54079;44.540;18.784;2023-05-24T14:11:28;25.80;67.20
55777;DHT22;54079;44.540;18.784;2023-05-24T14:13:56;25.90;66.90
55777;DHT22;54079;44.540;18.784;2023-05-24T14:16:22;25.80;67.10
55777;DHT22;54079;44.540;18.784;2023-05-24T14:18:49;25.90;68.00
55777;DHT22;54079;44.540;18.784;2023-05-24T14:21:17;25.70;67.70
55777;DHT22;54079;44.540;18.784;2023-05-24T14:23:43;25.70;68.20
55777;DHT22;54079;44.540;18.784;2023-05-24T14:26:09;25.60;69.20
55777;DHT22;54079;44.540;18.784;2023-05-24T14:28:35;25.60;69.00
55777;DHT22;54079;44.540;18.784;2023-05-24T14:31:01;25.60;68.20
55777;DHT22;54079;44.540;18.784;2023-05-24T14:33:27;25.60;67.30
55777;DHT22;54079;44.540;18.784;2023-05-24T14:35:53;25.70;64.50
55777;DHT22;54079;44.540;18.784;2023-05-24T14:38:19;25.90;65.20
55777;DHT22;54079;44.540;18.784;2023-05-24T14:40:45;25.80;66.20
55777;DHT22;54079;44.540;18.784;2023-05-24T14:43:13;25.90;65.80
55777;DHT22;54079;44.540;18.784;2023-05-24T14:45:39;25.70;66.30
55777;DHT22;54079;44.540;18.784;2023-05-24T14:48:06;25.90;66.80
55777;DHT22;54079;44.540;18.784;2023-05-24T14:50:36;26.10;66.70
55777;DHT22;54079;44.540;18.784;2023-05-24T14:53:02;26.10;67.30
55777;DHT22;54079;44.540;18.784;2023-05-24T14:55:34;26.30;68.60
55777;DHT22;54079;44.540;18.784;2023-05-24T14:58:01;25.80;68.10
55777;DHT22;54079;44.540;18.784;2023-05-24T15:00:27;25.80;68.20
55777;DHT22;54079;44.540;18.784;2023-05-24T15:02:53;25.70;68.80
55777;DHT22;54079;44.540;18.784;2023-05-24T15:05:19;25.50;69.50
55777;DHT22;54079;44.540;18.784;2023-05-24T15:07:45;25.50;70.20
55777;DHT22;54079;44.540;18.784;2023-05-24T15:10:11;25.60;69.70
55777;DHT22;54079;44.540;18.784;2023-05-24T15:12:38;25.60;70.50
55777;DHT22;54079;44.540;18.784;2023-05-24T15:15:04;25.30;70.80
55777;DHT22;54079;44.540;18.784;2023-05-24T15:17:31;25.00;71.80
55777;DHT22;54079;44.540;18.784;2023-05-24T15:19:57;25.00;73.00
55777;DHT22;54079;44.540;18.784;2023-05-24T15:22:24;24.90;72.90
55777;DHT22;54079;44.540;18.784;2023-05-24T15:24:51;25.10;73.10
55777;DHT22;54079;44.540;18.784;2023-05-24T15:27:17;25.10;73.40
55777;DHT22;54079;44.540;18.784;2023-05-24T15:29:43;25.00;73.80
55777;DHT22;54079;44.540;18.784;2023-05-24T15:32:09;25.10;74.00
55777;DHT22;54079;44.540;18.784;2023-05-24T15:34:35;25.30;73.80
55777;DHT22;54079;44.540;18.784;2023-05-24T15:37:01;25.40;73.60
55777;DHT22;54079;44.540;18.784;2023-05-24T15:39:27;25.30;74.10
55777;DHT22;54079;44.540;18.784;2023-05-24T15:41:53;25.10;73.60
55777;DHT22;54079;44.540;18.784;2023-05-24T15:44:19;25.00;75.00